sensor_id;sensor_type;location;lat;lon;timestamp;P1;durP1;ratioP1;P2;durP2;ratioP2
2956;SDS011;1488;51.548;7.222;2022-09-09T00:02:24;1.10;;;0.93;;
2956;SDS011;1488;51.548;7.222;2022-09-09T00:04:57;0.80;;;0.70;;
2956;SDS011;1488;51.548;7.222;2022-09-09T00:07:31;0.90;;;0.73;;
2956;SDS011;1488;51.548;7.222;2022-09-09T00:10:09;0.80;;;0.60;;
2956;SDS011;1488;51.548;7.222;2022-09-09T00:12:46;0.80;;;0.70;;
2956;SDS011;1488;51.548;7.222;2022-09-09T00:15:20;0.80;;;0.70;;
2956;SDS011;1488;51.548;7.222;2022-09-09T00:17:51;0.70;;;0.60;;
2956;SDS011;1488;51.548;7.222;2022-09-09T00:20:23;0.80;;;0.77;;
2956;SDS011;1488;51.548;7.222;2022-09-09T00:22:56;1.27;;;0.70;;
2956;SDS011;1488;51.548;7.222;2022-09-09T00:25:28;0.80;;;0.70;;
2956;SDS011;1488;51.548;7.222;2022-09-09T00:28:02;0.80;;;0.70;;
2956;SDS011;1488;51.548;7.222;2022-09-09T00:30:34;0.80;;;0.70;;
2956;SDS011;1488;51.548;7.222;2022-09-09T00:33:08;0.90;;;0.70;;
2956;SDS011;1488;51.548;7.222;2022-09-09T00:35:41;0.80;;;0.80;;
2956;SDS011;1488;51.548;7.222;2022-09-09T00:38:12;1.00;;;0.80;;
2956;SDS011;1488;51.548;7.222;2022-09-09T00:40:42;0.90;;;0.70;;
2956;SDS011;1488;51.548;7.222;2022-09-09T00:46:10;0.70;;;0.60;;
2956;SDS011;1488;51.548;7.222;2022-09-09T00:48:52;0.90;;;0.60;;
2956;SDS011;1488;51.548;7.222;2022-09-09T00:51:26;0.70;;;0.60;;
2956;SDS011;1488;51.548;7.222;2022-09-09T00:54:10;1.10;;;0.80;;
2956;SDS011;1488;51.548;7.222;2022-09-09T00:57:03;0.80;;;0.70;;
2956;SDS011;1488;51.548;7.222;2022-09-09T00:59:41;0.70;;;0.60;;
2956;SDS011;1488;51.548;7.222;2022-09-09T01:02:13;0.90;;;0.70;;
2956;SDS011;1488;51.548;7.222;2022-09-09T01:04:47;0.70;;;0.60;;
2956;SDS011;1488;51.548;7.222;2022-09-09T01:07:15;0.80;;;0.60;;
2956;SDS011;1488;51.548;7.222;2022-09-09T01:09:52;0.83;;;0.60;;
2956;SDS011;1488;51.548;7.222;2022-09-09T01:12:27;0.80;;;0.60;;
2956;SDS011;1488;51.548;7.222;2022-09-09T01:15:02;0.90;;;0.70;;
2956;SDS011;1488;51.548;7.222;2022-09-09T01:17:38;0.80;;;0.63;;
2956;SDS011;1488;51.548;7.222;2022-09-09T01:20:15;0.70;;;0.60;;
2956;SDS011;1488;51.548;7.222;2022-09-09T01:22:48;0.77;;;0.67;;
2956;SDS011;1488;51.548;7.222;2022-09-09T01:28:34;0.80;;;0.60;;
2956;SDS011;1488;51.548;7.222;2022-09-09T01:31:02;0.90;;;0.60;;
2956;SDS011;1488;51.548;7.222;2022-09-09T01:33:31;0.87;;;0.70;;
2956;SDS011;1488;51.548;7.222;2022-09-09T01:35:59;1.00;;;0.60;;
2956;SDS011;1488;51.548;7.222;2022-09-09T01:38:30;0.70;;;0.60;;
2956;SDS011;1488;51.548;7.222;2022-09-09T01:40:58;0.80;;;0.70;;
2956;SDS011;1488;51.548;7.222;2022-09-09T01:43:27;0.90;;;0.70;;
2956;SDS011;1488;51.548;7.222;2022-09-09T01:45:55;0.90;;;0.80;;
2956;SDS011;1488;51.548;7.222;2022-09-09T01:48:25;0.90;;;0.77;;
2956;SDS011;1488;51.548;7.222;2022-09-09T01:50:53;1.83;;;0.60;;
2956;SDS011;1488;51.548;7.222;2022-09-09T01:53:20;0.90;;;0.80;;
2956;SDS011;1488;51.548;7.222;2022-09-09T01:55:49;0.90;;;0.70;;
2956;SDS011;1488;51.548;7.222;2022-09-09T01:58:31;0.90;;;0.70;;
2956;SDS011;1488;51.548;7.222;2022-09-09T02:01:06;0.90;;;0.80;;
2956;SDS011;1488;51.548;7.222;2022-09-09T02:03:40;0.80;;;0.70;;
2956;SDS011;1488;51.548;7.222;2022-09-09T02:06:19;0.80;;;0.70;;
2956;SDS011;1488;51.548;7.222;2022-09-09T02:08:55;1.00;;;0.90;;
2956;SDS011;1488;51.548;7.222;2022-09-09T02:11:25;0.87;;;0.70;;
2956;SDS011;1488;51.548;7.222;2022-09-09T02:13:56;0.80;;;0.67;;
2956;SDS011;1488;51.548;7.222;2022-09-09T02:16:28;0.80;;;0.70;;
2956;SDS011;1488;51.548;7.222;2022-09-09T02:19:01;0.80;;;0.60;;
2956;SDS011;1488;51.548;7.222;2022-09-09T02:21:32;0.80;;;0.63;;
2956;SDS011;1488;51.548;7.222;2022-09-09T02:24:02;0.80;;;0.70;;
2956;SDS011;1488;51.548;7.222;2022-09-09T02:26:33;0.80;;;0.60;;
2956;SDS011;1488;51.548;7.222;2022-09-09T02:29:05;0.80;;;0.70;;
2956;SDS011;1488;51.548;7.222;2022-09-09T02:31:34;0.80;;;0.70;;
2956;SDS011;1488;51.548;7.222;2022-09-09T02:34:03;0.80;;;0.80;;
2956;SDS011;1488;51.548;7.222;2022-09-09T02:36:32;0.90;;;0.80;;
2956;SDS011;1488;51.548;7.222;2022-09-09T02:39:00;0.80;;;0.60;;
2956;SDS011;1488;51.548;7.222;2022-09-09T02:41:28;0.90;;;0.80;;
2956;SDS011;1488;51.548;7.222;2022-09-09T02:43:58;1.00;;;0.80;;
2956;SDS011;1488;51.548;7.222;2022-09-09T02:46:30;0.80;;;0.70;;
2956;SDS011;1488;51.548;7.222;2022-09-09T02:49:21;0.80;;;0.70;;
2956;SDS011;1488;51.548;7.222;2022-09-09T02:51:57;0.70;;;0.60;;
2956;SDS011;1488;51.548;7.222;2022-09-09T02:54:27;0.90;;;0.80;;
2956;SDS011;1488;51.548;7.222;2022-09-09T02:56:58;0.80;;;0.80;;
2956;SDS011;1488;51.548;7.222;2022-09-09T02:59:30;0.73;;;0.63;;
2956;SDS011;1488;51.548;7.222;2022-09-09T03:01:58;0.90;;;0.70;;
2956;SDS011;1488;51.548;7.222;2022-09-09T03:04:25;0.77;;;0.67;;
2956;SDS011;1488;51.548;7.222;2022-09-09T03:06:52;0.80;;;0.70;;
2956;SDS011;1488;51.548;7.222;2022-09-09T03:09:18;0.80;;;0.60;;
2956;SDS011;1488;51.548;7.222;2022-09-09T03:11:45;0.90;;;0.80;;
2956;SDS011;1488;51.548;7.222;2022-09-09T03:14:12;1.00;;;0.73;;
2956;SDS011;1488;51.548;7.222;2022-09-09T03:16:40;0.73;;;0.60;;
2956;SDS011;1488;51.548;7.222;2022-09-09T03:19:09;0.80;;;0.70;;
2956;SDS011;1488;51.548;7.222;2022-09-09T03:21:36;0.80;;;0.60;;
2956;SDS011;1488;51.548;7.222;2022-09-09T03:24:04;0.80;;;0.70;;
2956;SDS011;1488;51.548;7.222;2022-09-09T03:26:31;0.70;;;0.60;;
2956;SDS011;1488;51.548;7.222;2022-09-09T03:28:58;1.40;;;0.70;;
2956;SDS011;1488;51.548;7.222;2022-09-09T03:31:26;0.80;;;0.70;;
2956;SDS011;1488;51.548;7.222;2022-09-09T03:33:55;0.80;;;0.60;;
2956;SDS011;1488;51.548;7.222;2022-09-09T03:36:24;0.80;;;0.70;;
2956;SDS011;1488;51.548;7.222;2022-09-09T03:38:53;1.30;;;0.90;;
2956;SDS011;1488;51.548;7.222;2022-09-09T03:41:20;0.80;;;0.70;;
2956;SDS011;1488;51.548;7.222;2022-09-09T03:43:49;0.70;;;0.60;;
2956;SDS011;1488;51.548;7.222;2022-09-09T03:46:16;0.70;;;0.60;;
2956;SDS011;1488;51.548;7.222;2022-09-09T03:48:43;0.80;;;0.70;;
2956;SDS011;1488;51.548;7.222;2022-09-09T03:51:10;0.80;;;0.70;;
2956;SDS011;1488;51.548;7.222;2022-09-09T03:53:38;0.80;;;0.70;;
2956;SDS011;1488;51.548;7.222;2022-09-09T03:56:05;0.80;;;0.60;;
2956;SDS011;1488;51.548;7.222;2022-09-09T03:58:33;0.70;;;0.60;;
2956;SDS011;1488;51.548;7.222;2022-09-09T04:01:00;0.80;;;0.60;;
2956;SDS011;1488;51.548;7.222;2022-09-09T04:03:29;0.80;;;0.70;;
2956;SDS011;1488;51.548;7.222;2022-09-09T04:05:57;0.80;;;0.70;;
2956;SDS011;1488;51.548;7.222;2022-09-09T04:08:24;0.80;;;0.73;;
2956;SDS011;1488;51.548;7.222;2022-09-09T04:10:53;0.77;;;0.60;;
2956;SDS011;1488;51.548;7.222;2022-09-09T04:13:24;0.80;;;0.60;;
2956;SDS011;1488;51.548;7.222;2022-09-09T04:15:52;0.77;;;0.60;;
2956;SDS011;1488;51.548;7.222;2022-09-09T04:18:19;1.30;;;0.70;;
2956;SDS011;1488;51.548;7.222;2022-09-09T04:20:46;1.10;;;0.70;;
2956;SDS011;1488;51.548;7.222;2022-09-09T04:23:13;0.80;;;0.70;;
2956;SDS011;1488;51.548;7.222;2022-09-09T04:25:43;0.93;;;0.70;;
2956;SDS011;1488;51.548;7.222;2022-09-09T04:28:13;0.80;;;0.60;;
2956;SDS011;1488;51.548;7.222;2022-09-09T04:30:40;0.80;;;0.70;;
2956;SDS011;1488;51.548;7.222;2022-09-09T04:33:07;0.80;;;0.60;;
2956;SDS011;1488;51.548;7.222;2022-09-09T04:35:35;0.80;;;0.63;;
2956;SDS011;1488;51.548;7.222;2022-09-09T04:38:02;1.00;;;0.77;;
2956;SDS011;1488;51.548;7.222;2022-09-09T04:40:29;1.53;;;1.10;;
2956;SDS011;1488;51.548;7.222;2022-09-09T04:42:57;1.30;;;1.20;;
2956;SDS011;1488;51.548;7.222;2022-09-09T04:45:26;2.33;;;1.53;;
2956;SDS011;1488;51.548;7.222;2022-09-09T04:47:53;2.33;;;1.60;;
2956;SDS011;1488;51.548;7.222;2022-09-09T04:50:20;2.60;;;2.40;;
2956;SDS011;1488;51.548;7.222;2022-09-09T04:52:47;3.87;;;1.20;;
2956;SDS011;1488;51.548;7.222;2022-09-09T04:55:14;3.10;;;1.70;;
2956;SDS011;1488;51.548;7.222;2022-09-09T04:57:41;1.63;;;1.47;;
2956;SDS011;1488;51.548;7.222;2022-09-09T05:00:08;2.57;;;1.50;;
2956;SDS011;1488;51.548;7.222;2022-09-09T05:02:38;3.57;;;1.60;;
2956;SDS011;1488;51.548;7.222;2022-09-09T05:05:07;6.50;;;1.83;;
2956;SDS011;1488;51.548;7.222;2022-09-09T05:07:36;3.00;;;1.50;;
2956;SDS011;1488;51.548;7.222;2022-09-09T05:10:03;5.70;;;1.60;;
2956;SDS011;1488;51.548;7.222;2022-09-09T05:12:31;2.30;;;1.57;;
2956;SDS011;1488;51.548;7.222;2022-09-09T05:14:58;3.13;;;1.50;;
2956;SDS011;1488;51.548;7.222;2022-09-09T05:17:25;1.77;;;1.00;;
2956;SDS011;1488;51.548;7.222;2022-09-09T05:19:54;3.00;;;1.30;;
2956;SDS011;1488;51.548;7.222;2022-09-09T05:22:20;1.20;;;1.10;;
2956;SDS011;1488;51.548;7.222;2022-09-09T05:24:49;1.50;;;1.40;;
2956;SDS011;1488;51.548;7.222;2022-09-09T05:27:16;2.70;;;1.10;;
2956;SDS011;1488;51.548;7.222;2022-09-09T05:29:44;2.47;;;1.47;;
2956;SDS011;1488;51.548;7.222;2022-09-09T05:32:11;1.83;;;1.30;;
2956;SDS011;1488;51.548;7.222;2022-09-09T05:34:40;2.43;;;1.30;;
2956;SDS011;1488;51.548;7.222;2022-09-09T05:37:08;1.97;;;1.10;;
2956;SDS011;1488;51.548;7.222;2022-09-09T05:39:35;2.80;;;1.00;;
2956;SDS011;1488;51.548;7.222;2022-09-09T05:42:03;2.20;;;1.03;;
2956;SDS011;1488;51.548;7.222;2022-09-09T05:44:30;1.43;;;1.10;;
2956;SDS011;1488;51.548;7.222;2022-09-09T05:46:57;1.90;;;1.30;;
2956;SDS011;1488;51.548;7.222;2022-09-09T05:49:24;1.77;;;1.50;;
2956;SDS011;1488;51.548;7.222;2022-09-09T05:51:54;3.77;;;1.43;;
2956;SDS011;1488;51.548;7.222;2022-09-09T05:54:22;2.67;;;1.40;;
2956;SDS011;1488;51.548;7.222;2022-09-09T05:56:50;1.67;;;1.10;;
2956;SDS011;1488;51.548;7.222;2022-09-09T05:59:18;3.90;;;1.03;;
2956;SDS011;1488;51.548;7.222;2022-09-09T06:01:45;1.37;;;0.90;;
2956;SDS011;1488;51.548;7.222;2022-09-09T06:04:12;1.93;;;1.07;;
2956;SDS011;1488;51.548;7.222;2022-09-09T06:06:39;3.43;;;1.10;;
2956;SDS011;1488;51.548;7.222;2022-09-09T06:09:07;3.27;;;1.37;;
2956;SDS011;1488;51.548;7.222;2022-09-09T06:11:37;3.30;;;1.03;;
2956;SDS011;1488;51.548;7.222;2022-09-09T06:14:05;7.00;;;1.73;;
2956;SDS011;1488;51.548;7.222;2022-09-09T06:16:33;2.67;;;1.93;;
2956;SDS011;1488;51.548;7.222;2022-09-09T06:19:02;2.53;;;1.13;;
2956;SDS011;1488;51.548;7.222;2022-09-09T06:21:30;3.13;;;1.37;;
2956;SDS011;1488;51.548;7.222;2022-09-09T06:23:58;3.23;;;1.47;;
2956;SDS011;1488;51.548;7.222;2022-09-09T06:26:26;3.60;;;1.17;;
2956;SDS011;1488;51.548;7.222;2022-09-09T06:28:55;3.83;;;1.27;;
2956;SDS011;1488;51.548;7.222;2022-09-09T06:31:24;2.30;;;1.30;;
2956;SDS011;1488;51.548;7.222;2022-09-09T06:33:53;1.10;;;0.90;;
2956;SDS011;1488;51.548;7.222;2022-09-09T06:36:21;3.70;;;1.47;;
2956;SDS011;1488;51.548;7.222;2022-09-09T06:38:49;1.70;;;1.00;;
2956;SDS011;1488;51.548;7.222;2022-09-09T06:43:54;2.50;;;1.10;;
2956;SDS011;1488;51.548;7.222;2022-09-09T06:46:22;1.33;;;1.00;;
2956;SDS011;1488;51.548;7.222;2022-09-09T06:48:52;3.67;;;1.20;;
2956;SDS011;1488;51.548;7.222;2022-09-09T06:51:21;1.37;;;0.97;;
2956;SDS011;1488;51.548;7.222;2022-09-09T09:16:21;1.40;;;0.80;;
2956;SDS011;1488;51.548;7.222;2022-09-09T09:18:57;1.03;;;0.80;;
2956;SDS011;1488;51.548;7.222;2022-09-09T09:21:26;1.07;;;0.80;;
2956;SDS011;1488;51.548;7.222;2022-09-09T09:24:00;1.13;;;0.80;;
2956;SDS011;1488;51.548;7.222;2022-09-09T09:26:29;1.40;;;0.87;;
2956;SDS011;1488;51.548;7.222;2022-09-09T09:28:59;1.23;;;0.90;;
2956;SDS011;1488;51.548;7.222;2022-09-09T09:31:38;1.83;;;0.73;;
2956;SDS011;1488;51.548;7.222;2022-09-09T09:34:05;1.43;;;0.70;;
2956;SDS011;1488;51.548;7.222;2022-09-09T09:36:38;1.00;;;0.90;;
2956;SDS011;1488;51.548;7.222;2022-09-09T09:39:07;0.80;;;0.80;;
2956;SDS011;1488;51.548;7.222;2022-09-09T09:41:35;0.80;;;0.80;;
2956;SDS011;1488;51.548;7.222;2022-09-09T09:44:04;1.43;;;0.90;;
2956;SDS011;1488;51.548;7.222;2022-09-09T09:46:32;1.20;;;0.80;;
2956;SDS011;1488;51.548;7.222;2022-09-09T09:49:01;2.70;;;0.80;;
2956;SDS011;1488;51.548;7.222;2022-09-09T09:51:30;1.27;;;0.90;;
2956;SDS011;1488;51.548;7.222;2022-09-09T09:54:07;1.50;;;0.73;;
2956;SDS011;1488;51.548;7.222;2022-09-09T09:56:41;1.13;;;0.90;;
2956;SDS011;1488;51.548;7.222;2022-09-09T09:59:19;3.73;;;0.80;;
2956;SDS011;1488;51.548;7.222;2022-09-09T10:02:05;1.10;;;0.80;;
2956;SDS011;1488;51.548;7.222;2022-09-09T10:04:41;1.53;;;0.80;;
2956;SDS011;1488;51.548;7.222;2022-09-09T10:07:10;1.07;;;0.97;;
2956;SDS011;1488;51.548;7.222;2022-09-09T10:09:37;0.87;;;0.77;;
2956;SDS011;1488;51.548;7.222;2022-09-09T10:12:06;1.17;;;1.03;;
2956;SDS011;1488;51.548;7.222;2022-09-09T10:14:45;0.90;;;0.80;;
2956;SDS011;1488;51.548;7.222;2022-09-09T10:17:22;1.00;;;0.80;;
2956;SDS011;1488;51.548;7.222;2022-09-09T10:19:59;1.20;;;1.00;;
2956;SDS011;1488;51.548;7.222;2022-09-09T10:22:45;1.80;;;0.80;;
2956;SDS011;1488;51.548;7.222;2022-09-09T10:25:21;0.90;;;0.70;;
2956;SDS011;1488;51.548;7.222;2022-09-09T10:28:18;1.50;;;0.80;;
2956;SDS011;1488;51.548;7.222;2022-09-09T10:31:08;1.20;;;1.10;;
2956;SDS011;1488;51.548;7.222;2022-09-09T10:33:46;0.90;;;0.80;;
2956;SDS011;1488;51.548;7.222;2022-09-09T10:36:19;1.00;;;0.90;;
2956;SDS011;1488;51.548;7.222;2022-09-09T10:38:49;0.90;;;0.80;;
2956;SDS011;1488;51.548;7.222;2022-09-09T10:41:26;1.00;;;0.90;;
2956;SDS011;1488;51.548;7.222;2022-09-09T10:44:11;0.90;;;0.80;;
2956;SDS011;1488;51.548;7.222;2022-09-09T10:50:01;1.10;;;0.80;;
2956;SDS011;1488;51.548;7.222;2022-09-09T10:52:40;0.90;;;0.70;;
2956;SDS011;1488;51.548;7.222;2022-09-09T10:55:16;0.90;;;0.80;;
2956;SDS011;1488;51.548;7.222;2022-09-09T10:57:46;0.80;;;0.80;;
2956;SDS011;1488;51.548;7.222;2022-09-09T11:00:15;0.80;;;0.70;;
2956;SDS011;1488;51.548;7.222;2022-09-09T11:02:45;1.10;;;0.90;;
2956;SDS011;1488;51.548;7.222;2022-09-09T11:05:17;1.23;;;0.90;;
2956;SDS011;1488;51.548;7.222;2022-09-09T11:07:49;0.90;;;0.80;;
2956;SDS011;1488;51.548;7.222;2022-09-09T11:10:22;2.10;;;0.87;;
2956;SDS011;1488;51.548;7.222;2022-09-09T11:12:53;3.00;;;0.90;;
2956;SDS011;1488;51.548;7.222;2022-09-09T11:15:28;1.20;;;0.87;;
2956;SDS011;1488;51.548;7.222;2022-09-09T11:17:58;1.10;;;0.97;;
2956;SDS011;1488;51.548;7.222;2022-09-09T11:20:31;1.53;;;0.80;;
2956;SDS011;1488;51.548;7.222;2022-09-09T11:23:00;0.90;;;0.70;;
2956;SDS011;1488;51.548;7.222;2022-09-09T11:25:32;1.20;;;1.00;;
2956;SDS011;1488;51.548;7.222;2022-09-09T11:28:07;0.90;;;0.80;;
2956;SDS011;1488;51.548;7.222;2022-09-09T11:30:50;1.10;;;1.00;;
2956;SDS011;1488;51.548;7.222;2022-09-09T11:33:26;1.17;;;0.90;;
2956;SDS011;1488;51.548;7.222;2022-09-09T11:36:20;1.10;;;0.73;;
2956;SDS011;1488;51.548;7.222;2022-09-09T11:39:12;1.50;;;0.90;;
2956;SDS011;1488;51.548;7.222;2022-09-09T11:42:04;1.20;;;0.80;;
2956;SDS011;1488;51.548;7.222;2022-09-09T11:44:32;0.80;;;0.63;;
2956;SDS011;1488;51.548;7.222;2022-09-09T11:47:00;1.77;;;0.97;;
2956;SDS011;1488;51.548;7.222;2022-09-09T11:49:27;1.23;;;1.00;;
2956;SDS011;1488;51.548;7.222;2022-09-09T11:51:56;1.10;;;1.00;;
2956;SDS011;1488;51.548;7.222;2022-09-09T11:54:29;1.33;;;0.80;;
2956;SDS011;1488;51.548;7.222;2022-09-09T11:56:57;1.00;;;0.90;;
2956;SDS011;1488;51.548;7.222;2022-09-09T11:59:24;1.13;;;0.87;;
2956;SDS011;1488;51.548;7.222;2022-09-09T12:01:54;1.00;;;0.90;;
2956;SDS011;1488;51.548;7.222;2022-09-09T12:07:22;1.67;;;0.90;;
2956;SDS011;1488;51.548;7.222;2022-09-09T12:09:57;1.30;;;1.00;;
2956;SDS011;1488;51.548;7.222;2022-09-09T12:12:28;1.47;;;0.80;;
2956;SDS011;1488;51.548;7.222;2022-09-09T12:14:59;1.40;;;0.80;;
2956;SDS011;1488;51.548;7.222;2022-09-09T12:17:46;1.77;;;1.00;;
2956;SDS011;1488;51.548;7.222;2022-09-09T12:20:15;1.77;;;0.90;;
2956;SDS011;1488;51.548;7.222;2022-09-09T12:22:47;1.97;;;0.80;;
2956;SDS011;1488;51.548;7.222;2022-09-09T12:25:29;1.43;;;0.90;;
2956;SDS011;1488;51.548;7.222;2022-09-09T12:28:03;0.90;;;0.70;;
2956;SDS011;1488;51.548;7.222;2022-09-09T12:30:37;2.03;;;1.10;;
2956;SDS011;1488;51.548;7.222;2022-09-09T12:33:11;1.00;;;0.70;;
2956;SDS011;1488;51.548;7.222;2022-09-09T12:35:40;1.40;;;1.00;;
2956;SDS011;1488;51.548;7.222;2022-09-09T12:38:10;1.03;;;0.90;;
2956;SDS011;1488;51.548;7.222;2022-09-09T12:40:42;1.73;;;0.90;;
2956;SDS011;1488;51.548;7.222;2022-09-09T12:43:19;2.07;;;0.90;;
2956;SDS011;1488;51.548;7.222;2022-09-09T12:45:48;2.67;;;1.00;;
2956;SDS011;1488;51.548;7.222;2022-09-09T12:48:27;1.30;;;0.90;;
2956;SDS011;1488;51.548;7.222;2022-09-09T12:50:57;1.40;;;0.90;;
2956;SDS011;1488;51.548;7.222;2022-09-09T12:53:26;1.73;;;0.70;;
2956;SDS011;1488;51.548;7.222;2022-09-09T13:02:46;1.47;;;0.70;;
2956;SDS011;1488;51.548;7.222;2022-09-09T13:05:16;1.70;;;0.83;;
2956;SDS011;1488;51.548;7.222;2022-09-09T13:07:46;1.00;;;0.73;;
2956;SDS011;1488;51.548;7.222;2022-09-09T13:10:13;1.30;;;0.80;;
2956;SDS011;1488;51.548;7.222;2022-09-09T13:12:46;1.10;;;1.00;;
2956;SDS011;1488;51.548;7.222;2022-09-09T13:15:16;1.40;;;0.77;;
2956;SDS011;1488;51.548;7.222;2022-09-09T13:17:59;1.83;;;1.20;;
2956;SDS011;1488;51.548;7.222;2022-09-09T13:20:31;1.30;;;1.00;;
2956;SDS011;1488;51.548;7.222;2022-09-09T13:22:58;1.87;;;1.07;;
2956;SDS011;1488;51.548;7.222;2022-09-09T13:25:26;1.87;;;0.80;;
2956;SDS011;1488;51.548;7.222;2022-09-09T13:27:55;1.47;;;0.80;;
2956;SDS011;1488;51.548;7.222;2022-09-09T13:30:28;1.20;;;1.00;;
2956;SDS011;1488;51.548;7.222;2022-09-09T13:33:06;1.33;;;1.00;;
2956;SDS011;1488;51.548;7.222;2022-09-09T13:35:49;2.27;;;1.10;;
2956;SDS011;1488;51.548;7.222;2022-09-09T13:38:18;1.00;;;0.80;;
2956;SDS011;1488;51.548;7.222;2022-09-09T13:40:53;1.47;;;1.37;;
2956;SDS011;1488;51.548;7.222;2022-09-09T13:43:23;1.13;;;0.80;;
2956;SDS011;1488;51.548;7.222;2022-09-09T13:45:55;1.63;;;0.90;;
2956;SDS011;1488;51.548;7.222;2022-09-09T13:48:24;1.07;;;0.83;;
2956;SDS011;1488;51.548;7.222;2022-09-09T13:50:58;5.10;;;1.00;;
2956;SDS011;1488;51.548;7.222;2022-09-09T13:53:27;2.50;;;0.97;;
2956;SDS011;1488;51.548;7.222;2022-09-09T13:55:55;1.30;;;0.80;;
2956;SDS011;1488;51.548;7.222;2022-09-09T13:58:22;1.80;;;0.90;;
2956;SDS011;1488;51.548;7.222;2022-09-09T14:00:50;1.97;;;0.90;;
2956;SDS011;1488;51.548;7.222;2022-09-09T14:03:17;1.50;;;0.93;;
2956;SDS011;1488;51.548;7.222;2022-09-09T14:05:46;2.03;;;1.10;;
2956;SDS011;1488;51.548;7.222;2022-09-09T14:08:24;1.17;;;1.07;;
2956;SDS011;1488;51.548;7.222;2022-09-09T14:10:52;0.83;;;0.80;;
2956;SDS011;1488;51.548;7.222;2022-09-09T14:13:23;1.00;;;0.90;;
2956;SDS011;1488;51.548;7.222;2022-09-09T14:15:50;1.00;;;0.80;;
2956;SDS011;1488;51.548;7.222;2022-09-09T14:18:18;1.47;;;1.00;;
2956;SDS011;1488;51.548;7.222;2022-09-09T14:20:48;1.53;;;0.90;;
2956;SDS011;1488;51.548;7.222;2022-09-09T14:23:16;1.87;;;1.10;;
2956;SDS011;1488;51.548;7.222;2022-09-09T14:25:43;1.30;;;0.80;;
2956;SDS011;1488;51.548;7.222;2022-09-09T14:28:12;1.47;;;1.10;;
2956;SDS011;1488;51.548;7.222;2022-09-09T14:30:39;1.10;;;0.83;;
2956;SDS011;1488;51.548;7.222;2022-09-09T14:33:07;1.20;;;0.90;;
2956;SDS011;1488;51.548;7.222;2022-09-09T14:35:35;1.53;;;0.80;;
2956;SDS011;1488;51.548;7.222;2022-09-09T14:38:04;0.87;;;0.80;;
2956;SDS011;1488;51.548;7.222;2022-09-09T14:40:31;0.80;;;0.67;;
2956;SDS011;1488;51.548;7.222;2022-09-09T14:43:00;0.87;;;0.73;;
2956;SDS011;1488;51.548;7.222;2022-09-09T14:45:28;2.07;;;0.80;;
2956;SDS011;1488;51.548;7.222;2022-09-09T14:47:55;1.50;;;0.80;;
2956;SDS011;1488;51.548;7.222;2022-09-09T14:50:22;0.90;;;0.70;;
2956;SDS011;1488;51.548;7.222;2022-09-09T14:52:50;0.87;;;0.73;;
2956;SDS011;1488;51.548;7.222;2022-09-09T14:55:18;1.33;;;0.80;;
2956;SDS011;1488;51.548;7.222;2022-09-09T14:57:46;1.27;;;0.83;;
2956;SDS011;1488;51.548;7.222;2022-09-09T15:00:13;1.10;;;1.00;;
2956;SDS011;1488;51.548;7.222;2022-09-09T15:02:41;2.17;;;0.70;;
2956;SDS011;1488;51.548;7.222;2022-09-09T15:05:09;1.10;;;1.00;;
2956;SDS011;1488;51.548;7.222;2022-09-09T15:07:36;1.20;;;0.80;;
2956;SDS011;1488;51.548;7.222;2022-09-09T15:10:03;1.57;;;1.00;;
2956;SDS011;1488;51.548;7.222;2022-09-09T15:12:32;1.00;;;0.90;;
2956;SDS011;1488;51.548;7.222;2022-09-09T15:15:00;0.80;;;0.73;;
2956;SDS011;1488;51.548;7.222;2022-09-09T15:17:28;1.00;;;0.87;;
2956;SDS011;1488;51.548;7.222;2022-09-09T15:19:54;3.13;;;1.40;;
2956;SDS011;1488;51.548;7.222;2022-09-09T15:22:21;0.90;;;0.70;;
2956;SDS011;1488;51.548;7.222;2022-09-09T15:24:49;1.50;;;0.83;;
2956;SDS011;1488;51.548;7.222;2022-09-09T15:27:16;1.20;;;0.97;;
2956;SDS011;1488;51.548;7.222;2022-09-09T15:29:45;1.27;;;0.80;;
2956;SDS011;1488;51.548;7.222;2022-09-09T15:32:12;0.80;;;0.60;;
2956;SDS011;1488;51.548;7.222;2022-09-09T15:34:39;1.10;;;0.83;;
2956;SDS011;1488;51.548;7.222;2022-09-09T15:37:06;1.23;;;0.80;;
2956;SDS011;1488;51.548;7.222;2022-09-09T15:39:35;1.07;;;0.83;;
2956;SDS011;1488;51.548;7.222;2022-09-09T15:42:05;1.10;;;0.87;;
2956;SDS011;1488;51.548;7.222;2022-09-09T15:44:38;1.07;;;0.80;;
2956;SDS011;1488;51.548;7.222;2022-09-09T15:47:08;0.97;;;0.80;;
2956;SDS011;1488;51.548;7.222;2022-09-09T15:49:38;1.40;;;0.90;;
2956;SDS011;1488;51.548;7.222;2022-09-09T15:52:05;1.00;;;0.77;;
2956;SDS011;1488;51.548;7.222;2022-09-09T15:54:33;1.10;;;0.70;;
2956;SDS011;1488;51.548;7.222;2022-09-09T15:57:04;0.90;;;0.70;;
2956;SDS011;1488;51.548;7.222;2022-09-09T15:59:32;1.23;;;0.70;;
2956;SDS011;1488;51.548;7.222;2022-09-09T16:02:02;1.20;;;0.90;;
2956;SDS011;1488;51.548;7.222;2022-09-09T16:04:31;0.90;;;0.80;;
2956;SDS011;1488;51.548;7.222;2022-09-09T16:06:59;0.90;;;0.70;;
2956;SDS011;1488;51.548;7.222;2022-09-09T16:09:28;1.00;;;0.90;;
2956;SDS011;1488;51.548;7.222;2022-09-09T16:11:56;1.47;;;0.70;;
2956;SDS011;1488;51.548;7.222;2022-09-09T16:14:24;0.80;;;0.60;;
2956;SDS011;1488;51.548;7.222;2022-09-09T16:16:52;1.37;;;0.70;;
2956;SDS011;1488;51.548;7.222;2022-09-09T16:19:19;0.70;;;0.60;;
2956;SDS011;1488;51.548;7.222;2022-09-09T16:21:48;0.90;;;0.70;;
2956;SDS011;1488;51.548;7.222;2022-09-09T16:24:17;0.90;;;0.60;;
2956;SDS011;1488;51.548;7.222;2022-09-09T16:26:46;0.80;;;0.70;;
2956;SDS011;1488;51.548;7.222;2022-09-09T16:29:14;1.33;;;0.80;;
2956;SDS011;1488;51.548;7.222;2022-09-09T16:31:42;0.90;;;0.60;;
2956;SDS011;1488;51.548;7.222;2022-09-09T16:34:09;1.33;;;0.90;;
2956;SDS011;1488;51.548;7.222;2022-09-09T16:36:37;12.70;;;1.03;;
2956;SDS011;1488;51.548;7.222;2022-09-09T16:39:08;0.90;;;0.80;;
2956;SDS011;1488;51.548;7.222;2022-09-09T16:41:36;3.43;;;0.60;;
2956;SDS011;1488;51.548;7.222;2022-09-09T16:44:04;1.57;;;0.67;;
2956;SDS011;1488;51.548;7.222;2022-09-09T16:46:33;0.80;;;0.70;;
2956;SDS011;1488;51.548;7.222;2022-09-09T16:49:04;2.23;;;0.90;;
2956;SDS011;1488;51.548;7.222;2022-09-09T16:51:33;0.83;;;0.70;;
2956;SDS011;1488;51.548;7.222;2022-09-09T16:54:02;0.87;;;0.70;;
2956;SDS011;1488;51.548;7.222;2022-09-09T16:59:55;1.00;;;0.70;;
2956;SDS011;1488;51.548;7.222;2022-09-09T17:02:24;2.97;;;0.97;;
2956;SDS011;1488;51.548;7.222;2022-09-09T17:04:51;1.20;;;0.77;;
2956;SDS011;1488;51.548;7.222;2022-09-09T17:07:17;4.30;;;0.80;;
2956;SDS011;1488;51.548;7.222;2022-09-09T17:09:44;1.10;;;0.80;;
2956;SDS011;1488;51.548;7.222;2022-09-09T17:12:11;1.10;;;0.77;;
2956;SDS011;1488;51.548;7.222;2022-09-09T17:14:38;1.73;;;1.23;;
2956;SDS011;1488;51.548;7.222;2022-09-09T17:17:06;0.80;;;0.70;;
2956;SDS011;1488;51.548;7.222;2022-09-09T17:19:33;1.20;;;1.10;;
2956;SDS011;1488;51.548;7.222;2022-09-09T17:22:00;1.93;;;1.00;;
2956;SDS011;1488;51.548;7.222;2022-09-09T17:24:27;1.20;;;0.97;;
2956;SDS011;1488;51.548;7.222;2022-09-09T17:26:54;1.00;;;0.90;;
2956;SDS011;1488;51.548;7.222;2022-09-09T17:29:20;0.97;;;0.87;;
2956;SDS011;1488;51.548;7.222;2022-09-09T17:31:48;0.90;;;0.90;;
2956;SDS011;1488;51.548;7.222;2022-09-09T17:34:17;0.90;;;0.77;;
2956;SDS011;1488;51.548;7.222;2022-09-09T17:36:44;1.00;;;0.90;;
2956;SDS011;1488;51.548;7.222;2022-09-09T17:39:10;0.97;;;0.70;;
2956;SDS011;1488;51.548;7.222;2022-09-09T17:41:38;1.57;;;0.97;;
2956;SDS011;1488;51.548;7.222;2022-09-09T17:44:06;2.67;;;0.80;;
2956;SDS011;1488;51.548;7.222;2022-09-09T17:46:34;3.50;;;1.20;;
2956;SDS011;1488;51.548;7.222;2022-09-09T17:49:02;1.00;;;0.83;;
2956;SDS011;1488;51.548;7.222;2022-09-09T17:51:33;1.03;;;0.93;;
2956;SDS011;1488;51.548;7.222;2022-09-09T17:54:01;1.77;;;1.07;;
2956;SDS011;1488;51.548;7.222;2022-09-09T17:56:30;1.40;;;0.80;;
2956;SDS011;1488;51.548;7.222;2022-09-09T17:58:57;0.93;;;0.70;;
2956;SDS011;1488;51.548;7.222;2022-09-09T18:01:26;1.87;;;0.73;;
2956;SDS011;1488;51.548;7.222;2022-09-09T18:03:55;1.10;;;0.93;;
2956;SDS011;1488;51.548;7.222;2022-09-09T18:06:25;1.00;;;0.90;;
2956;SDS011;1488;51.548;7.222;2022-09-09T18:08:56;1.00;;;0.70;;
2956;SDS011;1488;51.548;7.222;2022-09-09T18:11:25;1.20;;;0.70;;
2956;SDS011;1488;51.548;7.222;2022-09-09T18:13:54;1.50;;;0.80;;
2956;SDS011;1488;51.548;7.222;2022-09-09T18:16:22;1.03;;;0.90;;
2956;SDS011;1488;51.548;7.222;2022-09-09T18:18:50;0.97;;;0.87;;
2956;SDS011;1488;51.548;7.222;2022-09-09T18:21:18;0.90;;;0.70;;
2956;SDS011;1488;51.548;7.222;2022-09-09T18:23:47;1.17;;;0.87;;